sensor_id;sensor_type;location;lat;lon;timestamp;temperature;humidity
8093;DHT22;4089;52.420;13.334;2023-12-20T00:02:15;7.00;99.90
8093;DHT22;4089;52.420;13.334;2023-12-20T00:04:41;7.00;99.90
8093;DHT22;4089;52.420;13.334;2023-12-20T00:07:09;7.00;99.90
8093;DHT22;4089;52.420;13.334;2023-12-20T00:09:36;6.90;99.90
8093;DHT22;4089;52.420;13.334;2023-12-20T00:12:03;7.00;99.90
8093;DHT22;4089;52.420;13.334;2023-12-20T00:14:29;7.00;99.90
8093;DHT22;4089;52.420;13.334;2023-12-20T00:16:56;7.10;99.90
8093;DHT22;4089;52.420;13.334;2023-12-20T00:19:23;7.10;99.90
8093;DHT22;4089;52.420;13.334;2023-12-20T00:21:50;7.00;99.90
8093;DHT22;4089;52.420;13.334;2023-12-20T00:24:17;7.00;99.90
8093;DHT22;4089;52.420;13.334;2023-12-20T00:26:44;7.00;99.90
8093;DHT22;4089;52.420;13.334;2023-12-20T00:29:11;7.10;99.90
8093;DHT22;4089;52.420;13.334;2023-12-20T00:31:38;7.10;99.90
8093;DHT22;4089;52.420;13.334;2023-12-20T00:34:05;7.10;99.90
8093;DHT22;4089;52.420;13.334;2023-12-20T00:36:33;7.10;99.90
8093;DHT22;4089;52.420;13.334;2023-12-20T00:39:00;7.10;99.90
8093;DHT22;4089;52.420;13.334;2023-12-20T00:41:27;7.10;99.90
8093;DHT22;4089;52.420;13.334;2023-12-20T00:43:54;7.10;99.90
8093;DHT22;4089;52.420;13.334;2023-12-20T00:46:21;7.10;99.90
8093;DHT22;4089;52.420;13.334;2023-12-20T00:48:48;7.10;99.90
8093;DHT22;4089;52.420;13.334;2023-12-20T00:51:14;7.10;99.90
8093;DHT22;4089;52.420;13.334;2023-12-20T00:53:41;7.10;99.90
8093;DHT22;4089;52.420;13.334;2023-12-20T00:56:08;7.10;99.90
8093;DHT22;4089;52.420;13.334;2023-12-20T00:58:35;7.10;99.90
8093;DHT22;4089;52.420;13.334;2023-12-20T01:01:02;7.10;99.90
8093;DHT22;4089;52.420;13.334;2023-12-20T01:03:29;7.10;99.90
8093;DHT22;4089;52.420;13.334;2023-12-20T01:05:56;7.10;99.90
8093;DHT22;4089;52.420;13.334;2023-12-20T01:08:23;7.10;99.90
8093;DHT22;4089;52.420;13.334;2023-12-20T01:10:49;7.10;99.90
8093;DHT22;4089;52.420;13.334;2023-12-20T01:13:16;7.10;99.90
8093;DHT22;4089;52.420;13.334;2023-12-20T01:15:43;7.10;99.90
8093;DHT22;4089;52.420;13.334;2023-12-20T01:18:10;7.10;99.90
8093;DHT22;4089;52.420;13.334;2023-12-20T01:20:37;7.20;99.90
8093;DHT22;4089;52.420;13.334;2023-12-20T01:23:04;7.20;99.90
8093;DHT22;4089;52.420;13.334;2023-12-20T01:25:31;7.20;99.90
8093;DHT22;4089;52.420;13.334;2023-12-20T01:27:58;7.20;99.90
8093;DHT22;4089;52.420;13.334;2023-12-20T01:30:25;7.10;99.90
8093;DHT22;4089;52.420;13.334;2023-12-20T01:32:51;7.20;99.90
8093;DHT22;4089;52.420;13.334;2023-12-20T01:35:18;7.20;99.90
8093;DHT22;4089;52.420;13.334;2023-12-20T01:37:45;7.20;99.90
8093;DHT22;4089;52.420;13.334;2023-12-20T01:40:13;7.20;99.90
8093;DHT22;4089;52.420;13.334;2023-12-20T01:42:40;7.20;99.90
8093;DHT22;4089;52.420;13.334;2023-12-20T01:45:08;7.10;99.90
8093;DHT22;4089;52.420;13.334;2023-12-20T01:47:35;7.10;99.90
8093;DHT22;4089;52.420;13.334;2023-12-20T01:50:04;7.10;99.90
8093;DHT22;4089;52.420;13.334;2023-12-20T01:52:32;7.10;99.90
8093;DHT22;4089;52.420;13.334;2023-12-20T01:55:00;7.10;99.90
8093;DHT22;4089;52.420;13.334;2023-12-20T01:57:30;7.10;99.90
8093;DHT22;4089;52.420;13.334;2023-12-20T01:59:58;7.00;99.90
8093;DHT22;4089;52.420;13.334;2023-12-20T02:02:26;7.00;99.90
8093;DHT22;4089;52.420;13.334;2023-12-20T02:04:54;7.00;99.90
8093;DHT22;4089;52.420;13.334;2023-12-20T02:07:21;7.00;99.90
8093;DHT22;4089;52.420;13.334;2023-12-20T02:09:49;7.00;99.90
8093;DHT22;4089;52.420;13.334;2023-12-20T02:12:16;7.00;99.90
8093;DHT22;4089;52.420;13.334;2023-12-20T02:14:43;7.00;99.90
8093;DHT22;4089;52.420;13.334;2023-12-20T02:17:10;7.10;99.90
8093;DHT22;4089;52.420;13.334;2023-12-20T02:19:37;7.10;99.90
8093;DHT22;4089;52.420;13.334;2023-12-20T02:24:34;7.10;99.90
8093;DHT22;4089;52.420;13.334;2023-12-20T02:27:00;7.00;99.90
8093;DHT22;4089;52.420;13.334;2023-12-20T02:29:27;7.00;99.90
8093;DHT22;4089;52.420;13.334;2023-12-20T02:31:54;7.00;99.90
8093;DHT22;4089;52.420;13.334;2023-12-20T02:34:21;7.00;99.90
8093;DHT22;4089;52.420;13.334;2023-12-20T02:36:48;7.10;99.90
8093;DHT22;4089;52.420;13.334;2023-12-20T02:39:15;7.10;99.90
8093;DHT22;4089;52.420;13.334;2023-12-20T02:41:42;7.10;99.90
8093;DHT22;4089;52.420;13.334;2023-12-20T02:44:09;7.10;99.90
8093;DHT22;4089;52.420;13.334;2023-12-20T02:46:35;7.10;99.90
8093;DHT22;4089;52.420;13.334;2023-12-20T02:49:02;7.20;99.90
8093;DHT22;4089;52.420;13.334;2023-12-20T02:51:29;7.20;99.90
8093;DHT22;4089;52.420;13.334;2023-12-20T02:53:56;7.20;99.90
8093;DHT22;4089;52.420;13.334;2023-12-20T02:56:23;7.20;99.90
8093;DHT22;4089;52.420;13.334;2023-12-20T02:58:50;7.20;99.90
8093;DHT22;4089;52.420;13.334;2023-12-20T03:01:16;7.20;99.90
8093;DHT22;4089;52.420;13.334;2023-12-20T03:03:43;7.20;99.90
8093;DHT22;4089;52.420;13.334;2023-12-20T03:06:10;7.30;99.90
8093;DHT22;4089;52.420;13.334;2023-12-20T03:08:37;7.30;99.90
8093;DHT22;4089;52.420;13.334;2023-12-20T03:11:05;7.20;99.90
8093;DHT22;4089;52.420;13.334;2023-12-20T03:13:32;7.20;99.90
8093;DHT22;4089;52.420;13.334;2023-12-20T03:15:58;7.10;99.90
8093;DHT22;4089;52.420;13.334;2023-12-20T03:18:25;7.20;99.90
8093;DHT22;4089;52.420;13.334;2023-12-20T03:20:54;7.20;99.90
8093;DHT22;4089;52.420;13.334;2023-12-20T03:23:21;7.20;99.90
8093;DHT22;4089;52.420;13.334;2023-12-20T03:25:48;7.20;99.90
8093;DHT22;4089;52.420;13.334;2023-12-20T03:28:15;7.20;99.90
8093;DHT22;4089;52.420;13.334;2023-12-20T03:30:42;7.20;99.90
8093;DHT22;4089;52.420;13.334;2023-12-20T03:33:09;7.20;99.90
8093;DHT22;4089;52.420;13.334;2023-12-20T03:35:36;7.20;99.90
8093;DHT22;4089;52.420;13.334;2023-12-20T03:38:03;7.20;99.90
8093;DHT22;4089;52.420;13.334;2023-12-20T03:40:30;7.20;99.90
8093;DHT22;4089;52.420;13.334;2023-12-20T03:42:57;7.20;99.90
8093;DHT22;4089;52.420;13.334;2023-12-20T03:45:24;7.30;99.90
8093;DHT22;4089;52.420;13.334;2023-12-20T03:47:51;7.20;99.90
8093;DHT22;4089;52.420;13.334;2023-12-20T03:50:25;7.30;99.90
8093;DHT22;4089;52.420;13.334;2023-12-20T03:52:52;7.30;99.90
8093;DHT22;4089;52.420;13.334;2023-12-20T03:55:19;7.10;99.90
8093;DHT22;4089;52.420;13.334;2023-12-20T03:57:46;7.10;99.90
8093;DHT22;4089;52.420;13.334;2023-12-20T04:00:14;7.10;99.90
8093;DHT22;4089;52.420;13.334;2023-12-20T04:02:41;7.10;99.90
8093;DHT22;4089;52.420;13.334;2023-12-20T04:05:09;7.20;99.90
8093;DHT22;4089;52.420;13.334;2023-12-20T04:07:36;7.20;99.90
8093;DHT22;4089;52.420;13.334;2023-12-20T04:10:04;7.10;99.90
8093;DHT22;4089;52.420;13.334;2023-12-20T04:12:31;7.10;99.90
8093;DHT22;4089;52.420;13.334;2023-12-20T04:14:58;7.10;99.90
8093;DHT22;4089;52.420;13.334;2023-12-20T04:17:25;7.10;99.90
8093;DHT22;4089;52.420;13.334;2023-12-20T04:19:52;7.00;99.90
8093;DHT22;4089;52.420;13.334;2023-12-20T04:22:19;7.00;99.90
8093;DHT22;4089;52.420;13.334;2023-12-20T04:24:46;6.90;99.90
8093;DHT22;4089;52.420;13.334;2023-12-20T04:27:13;6.90;99.90
8093;DHT22;4089;52.420;13.334;2023-12-20T04:29:40;6.90;99.90
8093;DHT22;4089;52.420;13.334;2023-12-20T04:32:06;6.90;99.90
8093;DHT22;4089;52.420;13.334;2023-12-20T04:34:33;6.80;99.90
8093;DHT22;4089;52.420;13.334;2023-12-20T04:37:00;6.80;99.90
8093;DHT22;4089;52.420;13.334;2023-12-20T04:39:28;6.70;99.90
8093;DHT22;4089;52.420;13.334;2023-12-20T04:41:55;6.70;99.90
8093;DHT22;4089;52.420;13.334;2023-12-20T04:44:22;6.60;99.90
8093;DHT22;4089;52.420;13.334;2023-12-20T04:46:49;6.50;99.90
8093;DHT22;4089;52.420;13.334;2023-12-20T04:49:15;6.50;99.90
8093;DHT22;4089;52.420;13.334;2023-12-20T04:51:43;6.40;99.90
8093;DHT22;4089;52.420;13.334;2023-12-20T04:54:09;6.40;99.90
8093;DHT22;4089;52.420;13.334;2023-12-20T04:56:38;6.30;99.90
8093;DHT22;4089;52.420;13.334;2023-12-20T04:59:04;6.30;99.90
8093;DHT22;4089;52.420;13.334;2023-12-20T05:01:32;6.20;99.90
8093;DHT22;4089;52.420;13.334;2023-12-20T05:03:59;6.20;99.90
8093;DHT22;4089;52.420;13.334;2023-12-20T05:06:26;6.20;99.90
8093;DHT22;4089;52.420;13.334;2023-12-20T05:08:53;6.10;99.90
8093;DHT22;4089;52.420;13.334;2023-12-20T05:11:20;6.10;99.90
8093;DHT22;4089;52.420;13.334;2023-12-20T05:13:46;6.10;99.90
8093;DHT22;4089;52.420;13.334;2023-12-20T05:16:16;6.10;99.90
8093;DHT22;4089;52.420;13.334;2023-12-20T05:18:46;6.20;99.90
8093;DHT22;4089;52.420;13.334;2023-12-20T05:21:13;6.20;99.90
8093;DHT22;4089;52.420;13.334;2023-12-20T05:23:40;6.20;99.90
8093;DHT22;4089;52.420;13.334;2023-12-20T05:26:07;6.10;99.90
8093;DHT22;4089;52.420;13.334;2023-12-20T05:28:34;6.10;99.90
8093;DHT22;4089;52.420;13.334;2023-12-20T05:31:01;6.10;99.90
8093;DHT22;4089;52.420;13.334;2023-12-20T05:33:28;6.00;99.90
8093;DHT22;4089;52.420;13.334;2023-12-20T05:35:55;5.90;99.90
8093;DHT22;4089;52.420;13.334;2023-12-20T05:38:22;5.80;99.90
8093;DHT22;4089;52.420;13.334;2023-12-20T05:40:49;5.80;99.90
8093;DHT22;4089;52.420;13.334;2023-12-20T05:43:15;5.80;99.90
8093;DHT22;4089;52.420;13.334;2023-12-20T05:45:42;5.80;99.90
8093;DHT22;4089;52.420;13.334;2023-12-20T05:48:09;5.70;99.90
8093;DHT22;4089;52.420;13.334;2023-12-20T05:50:36;5.70;99.90
8093;DHT22;4089;52.420;13.334;2023-12-20T05:53:03;5.60;99.90
8093;DHT22;4089;52.420;13.334;2023-12-20T05:55:30;5.50;99.90
8093;DHT22;4089;52.420;13.334;2023-12-20T05:57:57;5.60;99.90
8093;DHT22;4089;52.420;13.334;2023-12-20T06:00:24;5.50;99.90
8093;DHT22;4089;52.420;13.334;2023-12-20T06:02:51;5.50;99.90
8093;DHT22;4089;52.420;13.334;2023-12-20T06:05:18;5.50;99.90
8093;DHT22;4089;52.420;13.334;2023-12-20T06:07:45;5.50;99.90
8093;DHT22;4089;52.420;13.334;2023-12-20T06:10:15;5.40;99.90
8093;DHT22;4089;52.420;13.334;2023-12-20T06:12:42;5.40;99.90
8093;DHT22;4089;52.420;13.334;2023-12-20T06:15:09;5.40;99.90
8093;DHT22;4089;52.420;13.334;2023-12-20T06:17:36;5.40;99.90
8093;DHT22;4089;52.420;13.334;2023-12-20T06:20:03;5.40;99.90
8093;DHT22;4089;52.420;13.334;2023-12-20T06:22:35;5.40;99.90
8093;DHT22;4089;52.420;13.334;2023-12-20T06:25:02;5.40;99.90
8093;DHT22;4089;52.420;13.334;2023-12-20T06:27:29;5.40;99.90
8093;DHT22;4089;52.420;13.334;2023-12-20T06:29:57;5.40;99.90
8093;DHT22;4089;52.420;13.334;2023-12-20T06:32:24;5.40;99.90
8093;DHT22;4089;52.420;13.334;2023-12-20T06:34:51;5.40;99.90
8093;DHT22;4089;52.420;13.334;2023-12-20T06:37:18;5.40;99.90
8093;DHT22;4089;52.420;13.334;2023-12-20T06:39:45;5.50;99.90
8093;DHT22;4089;52.420;13.334;2023-12-20T06:42:12;5.40;99.90
8093;DHT22;4089;52.420;13.334;2023-12-20T06:44:39;5.40;99.90
8093;DHT22;4089;52.420;13.334;2023-12-20T06:47:07;5.40;99.90
8093;DHT22;4089;52.420;13.334;2023-12-20T06:49:33;5.50;99.90
8093;DHT22;4089;52.420;13.334;2023-12-20T06:52:01;5.50;99.90
8093;DHT22;4089;52.420;13.334;2023-12-20T06:54:27;5.50;99.90
8093;DHT22;4089;52.420;13.334;2023-12-20T06:56:54;5.40;99.90
8093;DHT22;4089;52.420;13.334;2023-12-20T06:59:21;5.50;99.90
8093;DHT22;4089;52.420;13.334;2023-12-20T07:01:49;5.40;99.90
8093;DHT22;4089;52.420;13.334;2023-12-20T07:04:16;5.40;99.90
8093;DHT22;4089;52.420;13.334;2023-12-20T07:06:50;5.40;99.90
8093;DHT22;4089;52.420;13.334;2023-12-20T07:09:18;5.50;99.90
8093;DHT22;4089;52.420;13.334;2023-12-20T07:11:45;5.50;99.90
8093;DHT22;4089;52.420;13.334;2023-12-20T07:14:12;5.50;99.90
8093;DHT22;4089;52.420;13.334;2023-12-20T07:16:39;5.50;99.90
8093;DHT22;4089;52.420;13.334;2023-12-20T07:19:07;5.50;99.90
8093;DHT22;4089;52.420;13.334;2023-12-20T07:21:34;5.50;99.90
8093;DHT22;4089;52.420;13.334;2023-12-20T07:24:00;5.50;99.90
8093;DHT22;4089;52.420;13.334;2023-12-20T07:26:27;5.60;99.90
8093;DHT22;4089;52.420;13.334;2023-12-20T07:28:54;5.50;99.90
8093;DHT22;4089;52.420;13.334;2023-12-20T07:31:21;5.60;99.90
8093;DHT22;4089;52.420;13.334;2023-12-20T07:33:48;5.60;99.90
8093;DHT22;4089;52.420;13.334;2023-12-20T07:36:15;5.60;99.90
8093;DHT22;4089;52.420;13.334;2023-12-20T07:38:42;5.60;99.90
8093;DHT22;4089;52.420;13.334;2023-12-20T07:41:12;5.60;99.90
8093;DHT22;4089;52.420;13.334;2023-12-20T07:43:38;5.70;99.90
8093;DHT22;4089;52.420;13.334;2023-12-20T07:46:06;5.70;99.90
8093;DHT22;4089;52.420;13.334;2023-12-20T07:48:37;5.70;99.90
8093;DHT22;4089;52.420;13.334;2023-12-20T07:51:04;5.70;99.90
8093;DHT22;4089;52.420;13.334;2023-12-20T07:53:33;5.70;99.90
8093;DHT22;4089;52.420;13.334;2023-12-20T07:56:00;5.70;99.90
8093;DHT22;4089;52.420;13.334;2023-12-20T07:58:27;5.70;99.90
8093;DHT22;4089;52.420;13.334;2023-12-20T08:01:16;5.70;99.90
8093;DHT22;4089;52.420;13.334;2023-12-20T08:03:44;5.70;99.90
8093;DHT22;4089;52.420;13.334;2023-12-20T08:06:11;5.80;99.90
8093;DHT22;4089;52.420;13.334;2023-12-20T08:08:38;5.80;99.90
8093;DHT22;4089;52.420;13.334;2023-12-20T08:11:04;5.80;99.90
8093;DHT22;4089;52.420;13.334;2023-12-20T08:13:31;5.90;99.90
8093;DHT22;4089;52.420;13.334;2023-12-20T08:15:58;5.90;99.90
8093;DHT22;4089;52.420;13.334;2023-12-20T08:18:27;5.90;99.90
8093;DHT22;4089;52.420;13.334;2023-12-20T08:20:54;5.80;99.90
8093;DHT22;4089;52.420;13.334;2023-12-20T08:23:22;5.80;99.90
8093;DHT22;4089;52.420;13.334;2023-12-20T08:25:53;5.80;99.90
8093;DHT22;4089;52.420;13.334;2023-12-20T08:28:20;5.70;99.90
8093;DHT22;4089;52.420;13.334;2023-12-20T08:30:46;5.70;99.90
8093;DHT22;4089;52.420;13.334;2023-12-20T08:33:13;5.70;99.90
8093;DHT22;4089;52.420;13.334;2023-12-20T08:35:40;5.70;99.90
8093;DHT22;4089;52.420;13.334;2023-12-20T08:38:07;5.70;99.90
8093;DHT22;4089;52.420;13.334;2023-12-20T08:40:34;5.80;99.90
8093;DHT22;4089;52.420;13.334;2023-12-20T08:43:01;5.80;99.90
8093;DHT22;4089;52.420;13.334;2023-12-20T08:45:28;5.70;99.90
8093;DHT22;4089;52.420;13.334;2023-12-20T08:47:55;6.00;99.90
8093;DHT22;4089;52.420;13.334;2023-12-20T08:50:24;6.00;99.90
8093;DHT22;4089;52.420;13.334;2023-12-20T08:52:52;6.10;99.90
8093;DHT22;4089;52.420;13.334;2023-12-20T08:55:19;6.10;99.90
8093;DHT22;4089;52.420;13.334;2023-12-20T08:57:48;6.10;99.90
8093;DHT22;4089;52.420;13.334;2023-12-20T09:00:16;6.20;99.90
8093;DHT22;4089;52.420;13.334;2023-12-20T09:02:43;6.20;99.90
8093;DHT22;4089;52.420;13.334;2023-12-20T09:05:10;6.20;99.90
8093;DHT22;4089;52.420;13.334;2023-12-20T09:07:37;6.20;99.90
8093;DHT22;4089;52.420;13.334;2023-12-20T09:10:04;6.20;99.90
8093;DHT22;4089;52.420;13.334;2023-12-20T09:12:31;6.40;99.90
8093;DHT22;4089;52.420;13.334;2023-12-20T09:14:58;6.50;99.90
8093;DHT22;4089;52.420;13.334;2023-12-20T09:17:25;6.50;99.90
8093;DHT22;4089;52.420;13.334;2023-12-20T09:19:52;6.50;99.90
8093;DHT22;4089;52.420;13.334;2023-12-20T09:22:20;6.50;99.90
8093;DHT22;4089;52.420;13.334;2023-12-20T09:24:48;6.50;99.90
8093;DHT22;4089;52.420;13.334;2023-12-20T09:27:14;6.40;99.90
8093;DHT22;4089;52.420;13.334;2023-12-20T09:29:41;6.40;99.90
8093;DHT22;4089;52.420;13.334;2023-12-20T09:32:08;6.40;99.90
8093;DHT22;4089;52.420;13.334;2023-12-20T09:34:35;6.40;99.90
8093;DHT22;4089;52.420;13.334;2023-12-20T09:37:04;6.40;99.90
8093;DHT22;4089;52.420;13.334;2023-12-20T09:39:31;6.40;99.90
8093;DHT22;4089;52.420;13.334;2023-12-20T09:42:03;6.50;99.90
8093;DHT22;4089;52.420;13.334;2023-12-20T09:44:31;6.60;99.90
8093;DHT22;4089;52.420;13.334;2023-12-20T09:46:58;6.60;99.90
8093;DHT22;4089;52.420;13.334;2023-12-20T09:49:27;6.60;99.90
8093;DHT22;4089;52.420;13.334;2023-12-20T09:51:55;6.70;99.90
8093;DHT22;4089;52.420;13.334;2023-12-20T09:54:23;6.70;99.90
8093;DHT22;4089;52.420;13.334;2023-12-20T09:56:50;6.80;99.90
8093;DHT22;4089;52.420;13.334;2023-12-20T09:59:18;6.80;99.90
8093;DHT22;4089;52.420;13.334;2023-12-20T10:01:45;6.80;99.90
8093;DHT22;4089;52.420;13.334;2023-12-20T10:04:13;6.80;99.90
8093;DHT22;4089;52.420;13.334;2023-12-20T10:06:55;6.80;99.90
8093;DHT22;4089;52.420;13.334;2023-12-20T10:09:24;6.80;99.90
8093;DHT22;4089;52.420;13.334;2023-12-20T10:11:54;6.70;99.90
8093;DHT22;4089;52.420;13.334;2023-12-20T10:14:21;6.70;99.90
8093;DHT22;4089;52.420;13.334;2023-12-20T10:16:49;6.80;99.90
8093;DHT22;4089;52.420;13.334;2023-12-20T10:19:17;6.80;99.90
8093;DHT22;4089;52.420;13.334;2023-12-20T10:21:45;6.80;99.90
8093;DHT22;4089;52.420;13.334;2023-12-20T10:24:17;6.80;99.90
8093;DHT22;4089;52.420;13.334;2023-12-20T10:26:44;6.80;99.90
8093;DHT22;4089;52.420;13.334;2023-12-20T10:29:11;6.80;99.90
8093;DHT22;4089;52.420;13.334;2023-12-20T10:31:38;6.90;99.90
8093;DHT22;4089;52.420;13.334;2023-12-20T10:34:09;6.90;99.90
8093;DHT22;4089;52.420;13.334;2023-12-20T10:36:36;7.00;99.90
8093;DHT22;4089;52.420;13.334;2023-12-20T10:39:04;7.00;99.90
8093;DHT22;4089;52.420;13.334;2023-12-20T10:41:33;7.00;99.90
8093;DHT22;4089;52.420;13.334;2023-12-20T10:44:03;7.10;99.90
8093;DHT22;4089;52.420;13.334;2023-12-20T10:46:34;7.20;99.90
8093;DHT22;4089;52.420;13.334;2023-12-20T10:49:05;7.20;99.90
8093;DHT22;4089;52.420;13.334;2023-12-20T10:51:34;7.10;99.90
8093;DHT22;4089;52.420;13.334;2023-12-20T10:54:01;7.10;99.90
8093;DHT22;4089;52.420;13.334;2023-12-20T10:56:32;7.20;99.90
8093;DHT22;4089;52.420;13.334;2023-12-20T10:59:01;7.20;99.90
8093;DHT22;4089;52.420;13.334;2023-12-20T11:01:30;7.20;99.90
8093;DHT22;4089;52.420;13.334;2023-12-20T11:03:57;7.10;99.90
8093;DHT22;4089;52.420;13.334;2023-12-20T11:07:07;7.10;99.90
8093;DHT22;4089;52.420;13.334;2023-12-20T11:09:42;7.10;99.90
8093;DHT22;4089;52.420;13.334;2023-12-20T11:12:18;7.20;99.90
8093;DHT22;4089;52.420;13.334;2023-12-20T11:14:51;7.20;99.90
8093;DHT22;4089;52.420;13.334;2023-12-20T11:17:18;7.20;99.90
8093;DHT22;4089;52.420;13.334;2023-12-20T11:22:24;7.20;99.90
8093;DHT22;4089;52.420;13.334;2023-12-20T11:24:52;7.20;99.90
8093;DHT22;4089;52.420;13.334;2023-12-20T11:27:20;7.20;99.90
8093;DHT22;4089;52.420;13.334;2023-12-20T11:29:55;7.10;99.90
8093;DHT22;4089;52.420;13.334;2023-12-20T11:32:27;7.10;99.90
8093;DHT22;4089;52.420;13.334;2023-12-20T11:34:57;7.00;99.90
8093;DHT22;4089;52.420;13.334;2023-12-20T11:37:35;7.00;99.90
8093;DHT22;4089;52.420;13.334;2023-12-20T11:42:38;7.00;99.90
8093;DHT22;4089;52.420;13.334;2023-12-20T11:45:05;6.90;99.90
8093;DHT22;4089;52.420;13.334;2023-12-20T11:47:34;7.00;99.90
8093;DHT22;4089;52.420;13.334;2023-12-20T11:50:02;7.00;99.90
8093;DHT22;4089;52.420;13.334;2023-12-20T11:52:30;7.00;99.90
8093;DHT22;4089;52.420;13.334;2023-12-20T11:54:57;6.90;99.90
8093;DHT22;4089;52.420;13.334;2023-12-20T11:57:25;6.90;99.90
8093;DHT22;4089;52.420;13.334;2023-12-20T11:59:54;7.00;99.90
8093;DHT22;4089;52.420;13.334;2023-12-20T12:02:21;7.00;99.90
8093;DHT22;4089;52.420;13.334;2023-12-20T12:04:51;6.90;99.90
8093;DHT22;4089;52.420;13.334;2023-12-20T12:07:19;6.90;99.90
8093;DHT22;4089;52.420;13.334;2023-12-20T12:09:46;7.00;99.90
8093;DHT22;4089;52.420;13.334;2023-12-20T12:12:14;6.90;99.90
8093;DHT22;4089;52.420;13.334;2023-12-20T12:14:40;7.00;99.90
8093;DHT22;4089;52.420;13.334;2023-12-20T12:17:14;7.00;99.90
8093;DHT22;4089;52.420;13.334;2023-12-20T12:19:42;7.00;99.90
8093;DHT22;4089;52.420;13.334;2023-12-20T12:22:14;7.00;99.90
8093;DHT22;4089;52.420;13.334;2023-12-20T12:24:44;7.10;99.90
8093;DHT22;4089;52.420;13.334;2023-12-20T12:27:16;7.00;99.90
8093;DHT22;4089;52.420;13.334;2023-12-20T12:30:01;7.10;99.90
8093;DHT22;4089;52.420;13.334;2023-12-20T12:32:29;7.00;99.90
8093;DHT22;4089;52.420;13.334;2023-12-20T12:34:57;7.00;99.90
8093;DHT22;4089;52.420;13.334;2023-12-20T12:37:25;7.00;99.90
8093;DHT22;4089;52.420;13.334;2023-12-20T12:39:53;6.90;99.90
8093;DHT22;4089;52.420;13.334;2023-12-20T12:42:21;6.80;99.90
8093;DHT22;4089;52.420;13.334;2023-12-20T12:44:52;6.80;99.90
8093;DHT22;4089;52.420;13.334;2023-12-20T12:47:19;6.70;99.90
8093;DHT22;4089;52.420;13.334;2023-12-20T12:49:45;6.70;99.90
8093;DHT22;4089;52.420;13.334;2023-12-20T12:52:12;6.70;99.90
8093;DHT22;4089;52.420;13.334;2023-12-20T12:54:39;6.60;99.90
8093;DHT22;4089;52.420;13.334;2023-12-20T12:57:06;6.50;99.90
8093;DHT22;4089;52.420;13.334;2023-12-20T12:59:33;6.50;99.90
8093;DHT22;4089;52.420;13.334;2023-12-20T13:02:10;6.50;99.90
8093;DHT22;4089;52.420;13.334;2023-12-20T13:04:37;6.50;99.90
8093;DHT22;4089;52.420;13.334;2023-12-20T13:07:05;6.50;99.90
8093;DHT22;4089;52.420;13.334;2023-12-20T13:09:32;6.40;99.90
8093;DHT22;4089;52.420;13.334;2023-12-20T13:11:58;6.40;99.90
8093;DHT22;4089;52.420;13.334;2023-12-20T13:14:26;6.50;99.90
8093;DHT22;4089;52.420;13.334;2023-12-20T13:16:53;6.50;99.90
8093;DHT22;4089;52.420;13.334;2023-12-20T13:19:19;6.30;99.90
8093;DHT22;4089;52.420;13.334;2023-12-20T13:21:47;6.40;99.90
8093;DHT22;4089;52.420;13.334;2023-12-20T13:24:15;6.30;99.90
8093;DHT22;4089;52.420;13.334;2023-12-20T13:26:42;6.30;99.90
8093;DHT22;4089;52.420;13.334;2023-12-20T13:29:08;6.20;99.90
8093;DHT22;4089;52.420;13.334;2023-12-20T13:31:35;6.20;99.90
8093;DHT22;4089;52.420;13.334;2023-12-20T13:34:03;6.10;99.90
8093;DHT22;4089;52.420;13.334;2023-12-20T13:36:30;6.10;99.90
8093;DHT22;4089;52.420;13.334;2023-12-20T13:38:57;6.00;99.90
8093;DHT22;4089;52.420;13.334;2023-12-20T13:41:24;5.80;99.90
8093;DHT22;4089;52.420;13.334;2023-12-20T13:43:50;5.90;99.90
8093;DHT22;4089;52.420;13.334;2023-12-20T13:46:17;5.90;99.90
8093;DHT22;4089;52.420;13.334;2023-12-20T13:48:46;5.70;99.90
8093;DHT22;4089;52.420;13.334;2023-12-20T13:51:16;5.50;99.90
8093;DHT22;4089;52.420;13.334;2023-12-20T13:53:43;5.40;99.90
8093;DHT22;4089;52.420;13.334;2023-12-20T13:56:10;5.30;99.90
8093;DHT22;4089;52.420;13.334;2023-12-20T13:58:37;5.30;99.90
8093;DHT22;4089;52.420;13.334;2023-12-20T14:01:04;5.20;99.90
8093;DHT22;4089;52.420;13.334;2023-12-20T14:03:32;5.00;99.90
8093;DHT22;4089;52.420;13.334;2023-12-20T14:05:59;5.00;99.90
8093;DHT22;4089;52.420;13.334;2023-12-20T14:08:27;5.00;99.90
8093;DHT22;4089;52.420;13.334;2023-12-20T14:10:54;5.00;99.90
8093;DHT22;4089;52.420;13.334;2023-12-20T14:13:21;4.90;99.90
8093;DHT22;4089;52.420;13.334;2023-12-20T14:15:48;4.90;99.90
8093;DHT22;4089;52.420;13.334;2023-12-20T14:18:16;4.80;99.90
8093;DHT22;4089;52.420;13.334;2023-12-20T14:20:43;4.80;99.90
8093;DHT22;4089;52.420;13.334;2023-12-20T14:23:11;4.70;99.90
8093;DHT22;4089;52.420;13.334;2023-12-20T14:25:37;4.70;99.90
8093;DHT22;4089;52.420;13.334;2023-12-20T14:28:17;4.70;99.90
8093;DHT22;4089;52.420;13.334;2023-12-20T14:30:50;4.60;99.90
8093;DHT22;4089;52.420;13.334;2023-12-20T14:33:17;4.60;99.90
8093;DHT22;4089;52.420;13.334;2023-12-20T14:35:46;4.60;99.90
8093;DHT22;4089;52.420;13.334;2023-12-20T14:38:13;4.60;99.90
8093;DHT22;4089;52.420;13.334;2023-12-20T14:40:41;4.60;99.90
8093;DHT22;4089;52.420;13.334;2023-12-20T14:43:08;4.70;99.90
8093;DHT22;4089;52.420;13.334;2023-12-20T14:45:35;4.70;99.90
8093;DHT22;4089;52.420;13.334;2023-12-20T14:48:02;4.70;99.90
8093;DHT22;4089;52.420;13.334;2023-12-20T14:50:29;4.80;99.90
8093;DHT22;4089;52.420;13.334;2023-12-20T14:52:56;4.90;99.90
8093;DHT22;4089;52.420;13.334;2023-12-20T14:55:23;4.90;99.90
8093;DHT22;4089;52.420;13.334;2023-12-20T14:57:50;4.90;99.90
8093;DHT22;4089;52.420;13.334;2023-12-20T15:00:17;5.00;99.90
8093;DHT22;4089;52.420;13.334;2023-12-20T15:02:44;5.00;99.90
8093;DHT22;4089;52.420;13.334;2023-12-20T15:05:11;5.00;99.90
8093;DHT22;4089;52.420;13.334;2023-12-20T15:07:38;5.00;99.90
8093;DHT22;4089;52.420;13.334;2023-12-20T15:10:06;5.00;99.90
8093;DHT22;4089;52.420;13.334;2023-12-20T15:12:33;5.10;99.90
8093;DHT22;4089;52.420;13.334;2023-12-20T15:15:04;5.10;99.90
8093;DHT22;4089;52.420;13.334;2023-12-20T15:17:31;5.10;99.90
8093;DHT22;4089;52.420;13.334;2023-12-20T15:19:59;5.20;99.90
8093;DHT22;4089;52.420;13.334;2023-12-20T15:22:26;5.10;99.90
8093;DHT22;4089;52.420;13.334;2023-12-20T15:24:53;5.10;99.90
8093;DHT22;4089;52.420;13.334;2023-12-20T15:27:22;5.10;99.90
8093;DHT22;4089;52.420;13.334;2023-12-20T15:29:51;5.20;99.90
8093;DHT22;4089;52.420;13.334;2023-12-20T15:32:18;5.10;99.90
8093;DHT22;4089;52.420;13.334;2023-12-20T15:34:47;5.10;99.90
8093;DHT22;4089;52.420;13.334;2023-12-20T15:37:14;5.00;99.90
8093;DHT22;4089;52.420;13.334;2023-12-20T15:39:41;5.00;99.90
8093;DHT22;4089;52.420;13.334;2023-12-20T15:42:09;4.90;99.90
8093;DHT22;4089;52.420;13.334;2023-12-20T15:44:36;4.90;99.90
8093;DHT22;4089;52.420;13.334;2023-12-20T15:47:03;4.90;99.90
8093;DHT22;4089;52.420;13.334;2023-12-20T15:49:30;4.90;99.90
8093;DHT22;4089;52.420;13.334;2023-12-20T15:51:57;4.90;99.90
8093;DHT22;4089;52.420;13.334;2023-12-20T15:54:24;4.90;99.90
8093;DHT22;4089;52.420;13.334;2023-12-20T15:56:51;5.00;99.90
8093;DHT22;4089;52.420;13.334;2023-12-20T15:59:18;5.00;99.90
8093;DHT22;4089;52.420;13.334;2023-12-20T16:01:45;5.00;99.90
8093;DHT22;4089;52.420;13.334;2023-12-20T16:04:20;5.00;99.90
8093;DHT22;4089;52.420;13.334;2023-12-20T16:06:47;5.00;99.90
8093;DHT22;4089;52.420;13.334;2023-12-20T16:09:14;5.00;99.90
8093;DHT22;4089;52.420;13.334;2023-12-20T16:11:42;4.90;99.90
8093;DHT22;4089;52.420;13.334;2023-12-20T16:14:11;4.90;99.90